sensor_id;sensor_type;location;lat;lon;timestamp;P1;durP1;ratioP1;P2;durP2;ratioP2
76290;SDS011;65100;46.884;17.410;2024-02-21T00:02:04;8.37;;;3.10;;
76290;SDS011;65100;46.884;17.410;2024-02-21T00:04:30;8.30;;;3.57;;
76290;SDS011;65100;46.884;17.410;2024-02-21T00:06:55;6.65;;;3.28;;
76290;SDS011;65100;46.884;17.410;2024-02-21T00:09:20;9.43;;;3.70;;
76290;SDS011;65100;46.884;17.410;2024-02-21T00:11:46;7.43;;;3.23;;
76290;SDS011;65100;46.884;17.410;2024-02-21T00:14:11;7.57;;;3.60;;
76290;SDS011;65100;46.884;17.410;2024-02-21T00:16:37;7.97;;;3.38;;
76290;SDS011;65100;46.884;17.410;2024-02-21T00:19:02;8.60;;;3.43;;
76290;SDS011;65100;46.884;17.410;2024-02-21T00:21:27;7.63;;;3.20;;
76290;SDS011;65100;46.884;17.410;2024-02-21T00:23:53;7.37;;;3.03;;
76290;SDS011;65100;46.884;17.410;2024-02-21T00:26:18;6.97;;;3.00;;
76290;SDS011;65100;46.884;17.410;2024-02-21T00:28:44;8.60;;;3.20;;
76290;SDS011;65100;46.884;17.410;2024-02-21T00:31:10;8.33;;;3.20;;
76290;SDS011;65100;46.884;17.410;2024-02-21T00:33:35;6.82;;;3.20;;
76290;SDS011;65100;46.884;17.410;2024-02-21T00:36:01;8.53;;;3.07;;
76290;SDS011;65100;46.884;17.410;2024-02-21T00:38:26;8.20;;;2.97;;
76290;SDS011;65100;46.884;17.410;2024-02-21T00:40:52;9.17;;;3.10;;
76290;SDS011;65100;46.884;17.410;2024-02-21T00:43:17;8.73;;;3.17;;
76290;SDS011;65100;46.884;17.410;2024-02-21T00:45:42;7.88;;;3.10;;
76290;SDS011;65100;46.884;17.410;2024-02-21T00:48:08;7.67;;;2.97;;
76290;SDS011;65100;46.884;17.410;2024-02-21T00:50:33;8.37;;;3.27;;
76290;SDS011;65100;46.884;17.410;2024-02-21T00:52:59;8.53;;;3.00;;
76290;SDS011;65100;46.884;17.410;2024-02-21T00:55:24;8.30;;;3.63;;
76290;SDS011;65100;46.884;17.410;2024-02-21T00:57:49;8.27;;;3.10;;
76290;SDS011;65100;46.884;17.410;2024-02-21T01:00:15;9.47;;;2.83;;
76290;SDS011;65100;46.884;17.410;2024-02-21T01:02:41;7.20;;;2.70;;
76290;SDS011;65100;46.884;17.410;2024-02-21T01:05:06;7.37;;;3.10;;
76290;SDS011;65100;46.884;17.410;2024-02-21T01:07:32;7.70;;;3.15;;
76290;SDS011;65100;46.884;17.410;2024-02-21T01:09:57;8.93;;;3.20;;
76290;SDS011;65100;46.884;17.410;2024-02-21T01:12:23;7.30;;;3.50;;
76290;SDS011;65100;46.884;17.410;2024-02-21T01:14:48;6.80;;;3.00;;
76290;SDS011;65100;46.884;17.410;2024-02-21T01:17:14;8.05;;;3.10;;
76290;SDS011;65100;46.884;17.410;2024-02-21T01:19:40;7.88;;;3.50;;
76290;SDS011;65100;46.884;17.410;2024-02-21T01:22:06;8.27;;;3.47;;
76290;SDS011;65100;46.884;17.410;2024-02-21T01:24:31;8.70;;;3.50;;
76290;SDS011;65100;46.884;17.410;2024-02-21T01:26:57;7.43;;;2.77;;
76290;SDS011;65100;46.884;17.410;2024-02-21T01:29:22;8.70;;;3.50;;
76290;SDS011;65100;46.884;17.410;2024-02-21T01:31:48;7.47;;;2.90;;
76290;SDS011;65100;46.884;17.410;2024-02-21T01:34:13;7.27;;;2.93;;
76290;SDS011;65100;46.884;17.410;2024-02-21T01:36:39;9.47;;;3.30;;
76290;SDS011;65100;46.884;17.410;2024-02-21T01:39:04;8.40;;;3.58;;
76290;SDS011;65100;46.884;17.410;2024-02-21T01:41:30;8.33;;;3.43;;
76290;SDS011;65100;46.884;17.410;2024-02-21T01:43:56;8.73;;;3.17;;
76290;SDS011;65100;46.884;17.410;2024-02-21T01:46:22;7.10;;;2.90;;
76290;SDS011;65100;46.884;17.410;2024-02-21T01:48:48;8.45;;;4.03;;
76290;SDS011;65100;46.884;17.410;2024-02-21T01:51:13;9.33;;;3.27;;
76290;SDS011;65100;46.884;17.410;2024-02-21T01:53:42;8.20;;;3.28;;
76290;SDS011;65100;46.884;17.410;2024-02-21T01:56:09;7.82;;;3.63;;
76290;SDS011;65100;46.884;17.410;2024-02-21T01:58:35;8.67;;;3.20;;
76290;SDS011;65100;46.884;17.410;2024-02-21T02:01:02;7.83;;;3.07;;
76290;SDS011;65100;46.884;17.410;2024-02-21T02:03:28;8.75;;;3.70;;
76290;SDS011;65100;46.884;17.410;2024-02-21T02:05:55;9.73;;;3.28;;
76290;SDS011;65100;46.884;17.410;2024-02-21T02:08:20;9.53;;;3.70;;
76290;SDS011;65100;46.884;17.410;2024-02-21T02:10:48;8.48;;;3.83;;
76290;SDS011;65100;46.884;17.410;2024-02-21T02:13:14;8.97;;;3.60;;
76290;SDS011;65100;46.884;17.410;2024-02-21T02:18:12;7.80;;;3.30;;
76290;SDS011;65100;46.884;17.410;2024-02-21T02:20:39;7.53;;;3.30;;
76290;SDS011;65100;46.884;17.410;2024-02-21T02:23:11;9.43;;;3.33;;
76290;SDS011;65100;46.884;17.410;2024-02-21T02:25:45;9.35;;;4.18;;
76290;SDS011;65100;46.884;17.410;2024-02-21T02:28:17;8.68;;;3.47;;
76290;SDS011;65100;46.884;17.410;2024-02-21T02:30:42;8.43;;;3.70;;
76290;SDS011;65100;46.884;17.410;2024-02-21T02:33:08;9.40;;;3.93;;
76290;SDS011;65100;46.884;17.410;2024-02-21T02:35:34;8.87;;;3.57;;
76290;SDS011;65100;46.884;17.410;2024-02-21T02:38:01;8.30;;;3.00;;
76290;SDS011;65100;46.884;17.410;2024-02-21T02:40:27;9.75;;;4.18;;
76290;SDS011;65100;46.884;17.410;2024-02-21T02:42:52;8.73;;;3.70;;
76290;SDS011;65100;46.884;17.410;2024-02-21T02:45:20;9.02;;;3.78;;
76290;SDS011;65100;46.884;17.410;2024-02-21T02:47:47;8.73;;;3.67;;
76290;SDS011;65100;46.884;17.410;2024-02-21T02:50:13;7.87;;;3.10;;
76290;SDS011;65100;46.884;17.410;2024-02-21T02:52:39;8.60;;;3.58;;
76290;SDS011;65100;46.884;17.410;2024-02-21T02:55:05;7.28;;;3.45;;
76290;SDS011;65100;46.884;17.410;2024-02-21T02:57:31;7.50;;;3.37;;
76290;SDS011;65100;46.884;17.410;2024-02-21T02:59:57;7.80;;;3.42;;
76290;SDS011;65100;46.884;17.410;2024-02-21T03:02:22;8.60;;;3.30;;
76290;SDS011;65100;46.884;17.410;2024-02-21T03:04:48;9.13;;;3.57;;
76290;SDS011;65100;46.884;17.410;2024-02-21T03:07:14;8.45;;;3.97;;
76290;SDS011;65100;46.884;17.410;2024-02-21T03:09:40;9.98;;;3.75;;
76290;SDS011;65100;46.884;17.410;2024-02-21T03:12:08;10.40;;;3.87;;
76290;SDS011;65100;46.884;17.410;2024-02-21T03:14:34;9.27;;;3.80;;
76290;SDS011;65100;46.884;17.410;2024-02-21T03:16:59;9.80;;;4.18;;
76290;SDS011;65100;46.884;17.410;2024-02-21T03:19:25;8.20;;;3.80;;
76290;SDS011;65100;46.884;17.410;2024-02-21T03:21:53;9.33;;;3.60;;
76290;SDS011;65100;46.884;17.410;2024-02-21T03:24:19;8.70;;;3.50;;
76290;SDS011;65100;46.884;17.410;2024-02-21T03:26:44;7.43;;;3.65;;
76290;SDS011;65100;46.884;17.410;2024-02-21T03:29:12;10.40;;;4.18;;
76290;SDS011;65100;46.884;17.410;2024-02-21T03:31:37;8.50;;;3.97;;
76290;SDS011;65100;46.884;17.410;2024-02-21T03:34:03;9.20;;;3.43;;
76290;SDS011;65100;46.884;17.410;2024-02-21T03:36:28;8.00;;;4.00;;
76290;SDS011;65100;46.884;17.410;2024-02-21T03:38:54;9.15;;;3.40;;
76290;SDS011;65100;46.884;17.410;2024-02-21T03:41:20;10.48;;;4.18;;
76290;SDS011;65100;46.884;17.410;2024-02-21T03:43:46;8.77;;;3.80;;
76290;SDS011;65100;46.884;17.410;2024-02-21T03:46:12;11.82;;;4.25;;
76290;SDS011;65100;46.884;17.410;2024-02-21T03:48:37;9.93;;;3.80;;
76290;SDS011;65100;46.884;17.410;2024-02-21T03:51:03;9.53;;;4.37;;
76290;SDS011;65100;46.884;17.410;2024-02-21T03:53:28;10.02;;;4.15;;
76290;SDS011;65100;46.884;17.410;2024-02-21T03:55:54;10.10;;;4.20;;
76290;SDS011;65100;46.884;17.410;2024-02-21T03:58:20;10.15;;;3.88;;
76290;SDS011;65100;46.884;17.410;2024-02-21T04:00:46;12.60;;;4.67;;
76290;SDS011;65100;46.884;17.410;2024-02-21T04:03:11;9.80;;;4.63;;
76290;SDS011;65100;46.884;17.410;2024-02-21T04:05:37;8.83;;;4.17;;
76290;SDS011;65100;46.884;17.410;2024-02-21T04:08:05;9.93;;;4.30;;
76290;SDS011;65100;46.884;17.410;2024-02-21T04:10:31;9.82;;;4.72;;
76290;SDS011;65100;46.884;17.410;2024-02-21T04:12:57;8.43;;;4.37;;
76290;SDS011;65100;46.884;17.410;2024-02-21T04:15:22;11.53;;;4.50;;
76290;SDS011;65100;46.884;17.410;2024-02-21T04:17:47;10.60;;;4.83;;
76290;SDS011;65100;46.884;17.410;2024-02-21T04:20:14;9.48;;;4.65;;
76290;SDS011;65100;46.884;17.410;2024-02-21T04:22:42;10.68;;;5.07;;
76290;SDS011;65100;46.884;17.410;2024-02-21T04:25:09;10.80;;;5.03;;
76290;SDS011;65100;46.884;17.410;2024-02-21T04:27:34;9.88;;;4.68;;
76290;SDS011;65100;46.884;17.410;2024-02-21T04:30:00;9.80;;;4.53;;
76290;SDS011;65100;46.884;17.410;2024-02-21T04:32:25;10.93;;;4.63;;
76290;SDS011;65100;46.884;17.410;2024-02-21T04:34:52;9.85;;;4.75;;
76290;SDS011;65100;46.884;17.410;2024-02-21T04:37:18;7.93;;;3.43;;
76290;SDS011;65100;46.884;17.410;2024-02-21T04:39:43;10.35;;;4.60;;
76290;SDS011;65100;46.884;17.410;2024-02-21T04:42:09;9.83;;;4.33;;
76290;SDS011;65100;46.884;17.410;2024-02-21T04:44:35;9.23;;;4.35;;
76290;SDS011;65100;46.884;17.410;2024-02-21T04:47:00;8.60;;;4.57;;
76290;SDS011;65100;46.884;17.410;2024-02-21T04:49:26;9.53;;;4.60;;
76290;SDS011;65100;46.884;17.410;2024-02-21T04:51:51;12.85;;;5.70;;
76290;SDS011;65100;46.884;17.410;2024-02-21T04:54:17;9.77;;;4.17;;
76290;SDS011;65100;46.884;17.410;2024-02-21T04:56:42;12.47;;;4.23;;
76290;SDS011;65100;46.884;17.410;2024-02-21T04:59:07;11.30;;;4.93;;
76290;SDS011;65100;46.884;17.410;2024-02-21T05:01:33;8.20;;;3.77;;
76290;SDS011;65100;46.884;17.410;2024-02-21T05:03:58;8.57;;;4.13;;
76290;SDS011;65100;46.884;17.410;2024-02-21T05:06:24;9.27;;;4.37;;
76290;SDS011;65100;46.884;17.410;2024-02-21T05:08:49;8.03;;;4.20;;
76290;SDS011;65100;46.884;17.410;2024-02-21T05:11:14;10.02;;;4.43;;
76290;SDS011;65100;46.884;17.410;2024-02-21T05:13:40;9.10;;;4.63;;
76290;SDS011;65100;46.884;17.410;2024-02-21T05:16:06;9.98;;;4.80;;
76290;SDS011;65100;46.884;17.410;2024-02-21T05:18:32;8.53;;;5.13;;
76290;SDS011;65100;46.884;17.410;2024-02-21T05:20:58;10.77;;;4.70;;
76290;SDS011;65100;46.884;17.410;2024-02-21T05:23:24;11.63;;;4.45;;
76290;SDS011;65100;46.884;17.410;2024-02-21T05:25:49;9.27;;;4.33;;
76290;SDS011;65100;46.884;17.410;2024-02-21T05:28:15;10.13;;;4.20;;
76290;SDS011;65100;46.884;17.410;2024-02-21T05:30:40;9.53;;;4.00;;
76290;SDS011;65100;46.884;17.410;2024-02-21T05:33:08;10.68;;;4.97;;
76290;SDS011;65100;46.884;17.410;2024-02-21T05:35:34;9.47;;;4.53;;
76290;SDS011;65100;46.884;17.410;2024-02-21T05:38:01;10.23;;;4.38;;
76290;SDS011;65100;46.884;17.410;2024-02-21T05:40:30;8.75;;;4.38;;
76290;SDS011;65100;46.884;17.410;2024-02-21T05:42:55;9.80;;;4.30;;
76290;SDS011;65100;46.884;17.410;2024-02-21T05:45:22;9.98;;;4.35;;
76290;SDS011;65100;46.884;17.410;2024-02-21T05:47:48;11.23;;;4.75;;
76290;SDS011;65100;46.884;17.410;2024-02-21T05:53:21;16.03;;;7.27;;
76290;SDS011;65100;46.884;17.410;2024-02-21T05:55:46;24.63;;;13.15;;
76290;SDS011;65100;46.884;17.410;2024-02-21T05:58:11;15.67;;;8.17;;
76290;SDS011;65100;46.884;17.410;2024-02-21T06:00:38;16.85;;;7.90;;
76290;SDS011;65100;46.884;17.410;2024-02-21T06:03:04;14.00;;;6.50;;
76290;SDS011;65100;46.884;17.410;2024-02-21T06:05:30;13.75;;;5.90;;
76290;SDS011;65100;46.884;17.410;2024-02-21T06:07:56;13.05;;;5.72;;
76290;SDS011;65100;46.884;17.410;2024-02-21T06:10:22;16.90;;;7.37;;
76290;SDS011;65100;46.884;17.410;2024-02-21T06:12:47;23.50;;;10.00;;
76290;SDS011;65100;46.884;17.410;2024-02-21T06:15:13;20.27;;;8.37;;
76290;SDS011;65100;46.884;17.410;2024-02-21T06:17:59;16.27;;;7.60;;
76290;SDS011;65100;46.884;17.410;2024-02-21T06:20:24;30.97;;;11.77;;
76290;SDS011;65100;46.884;17.410;2024-02-21T06:22:50;20.63;;;10.40;;
76290;SDS011;65100;46.884;17.410;2024-02-21T06:25:15;22.63;;;11.30;;
76290;SDS011;65100;46.884;17.410;2024-02-21T06:27:41;23.33;;;11.33;;
76290;SDS011;65100;46.884;17.410;2024-02-21T06:30:06;20.83;;;10.60;;
76290;SDS011;65100;46.884;17.410;2024-02-21T06:32:32;23.88;;;10.65;;
76290;SDS011;65100;46.884;17.410;2024-02-21T06:34:58;21.30;;;10.07;;
76290;SDS011;65100;46.884;17.410;2024-02-21T06:37:23;21.67;;;10.05;;
76290;SDS011;65100;46.884;17.410;2024-02-21T06:39:49;23.93;;;11.97;;
76290;SDS011;65100;46.884;17.410;2024-02-21T06:42:15;23.73;;;11.70;;
76290;SDS011;65100;46.884;17.410;2024-02-21T06:44:40;19.70;;;10.20;;
76290;SDS011;65100;46.884;17.410;2024-02-21T06:47:06;20.53;;;10.03;;
76290;SDS011;65100;46.884;17.410;2024-02-21T06:49:32;20.83;;;9.55;;
76290;SDS011;65100;46.884;17.410;2024-02-21T06:51:58;17.93;;;8.80;;
76290;SDS011;65100;46.884;17.410;2024-02-21T06:54:23;18.90;;;9.73;;
76290;SDS011;65100;46.884;17.410;2024-02-21T06:56:49;22.53;;;11.20;;
76290;SDS011;65100;46.884;17.410;2024-02-21T06:59:14;19.97;;;9.97;;
76290;SDS011;65100;46.884;17.410;2024-02-21T07:01:44;21.02;;;9.85;;
76290;SDS011;65100;46.884;17.410;2024-02-21T07:04:18;19.75;;;10.10;;
76290;SDS011;65100;46.884;17.410;2024-02-21T07:06:43;20.37;;;9.77;;
76290;SDS011;65100;46.884;17.410;2024-02-21T07:09:09;18.80;;;9.63;;
76290;SDS011;65100;46.884;17.410;2024-02-21T07:11:34;19.00;;;9.27;;
76290;SDS011;65100;46.884;17.410;2024-02-21T07:14:00;19.37;;;10.23;;
76290;SDS011;65100;46.884;17.410;2024-02-21T07:16:25;18.93;;;10.03;;
76290;SDS011;65100;46.884;17.410;2024-02-21T07:18:51;22.98;;;10.75;;
76290;SDS011;65100;46.884;17.410;2024-02-21T07:21:17;23.17;;;12.43;;
76290;SDS011;65100;46.884;17.410;2024-02-21T07:23:42;24.37;;;12.03;;
76290;SDS011;65100;46.884;17.410;2024-02-21T07:26:08;27.20;;;14.07;;
76290;SDS011;65100;46.884;17.410;2024-02-21T07:28:33;35.47;;;17.00;;
76290;SDS011;65100;46.884;17.410;2024-02-21T07:30:59;38.37;;;17.90;;
76290;SDS011;65100;46.884;17.410;2024-02-21T07:33:25;29.52;;;14.32;;
76290;SDS011;65100;46.884;17.410;2024-02-21T07:35:50;30.53;;;14.50;;
76290;SDS011;65100;46.884;17.410;2024-02-21T07:38:16;38.20;;;17.42;;
76290;SDS011;65100;46.884;17.410;2024-02-21T07:40:46;34.65;;;17.55;;
76290;SDS011;65100;46.884;17.410;2024-02-21T07:43:11;34.37;;;15.90;;
76290;SDS011;65100;46.884;17.410;2024-02-21T07:45:37;33.22;;;16.33;;
76290;SDS011;65100;46.884;17.410;2024-02-21T07:48:04;27.73;;;14.10;;
76290;SDS011;65100;46.884;17.410;2024-02-21T07:50:33;31.13;;;14.35;;
76290;SDS011;65100;46.884;17.410;2024-02-21T07:52:59;28.88;;;14.02;;
76290;SDS011;65100;46.884;17.410;2024-02-21T07:55:24;25.73;;;11.93;;
76290;SDS011;65100;46.884;17.410;2024-02-21T07:57:49;22.43;;;10.73;;
76290;SDS011;65100;46.884;17.410;2024-02-21T08:00:15;26.27;;;12.40;;
76290;SDS011;65100;46.884;17.410;2024-02-21T08:02:48;25.63;;;12.63;;
76290;SDS011;65100;46.884;17.410;2024-02-21T08:05:14;25.07;;;12.03;;
76290;SDS011;65100;46.884;17.410;2024-02-21T08:07:39;25.52;;;12.00;;
76290;SDS011;65100;46.884;17.410;2024-02-21T08:10:05;18.57;;;8.03;;
76290;SDS011;65100;46.884;17.410;2024-02-21T08:12:34;18.38;;;8.50;;
76290;SDS011;65100;46.884;17.410;2024-02-21T08:15:00;27.42;;;10.02;;
76290;SDS011;65100;46.884;17.410;2024-02-21T08:17:28;21.70;;;9.73;;
76290;SDS011;65100;46.884;17.410;2024-02-21T08:19:53;23.30;;;8.93;;
76290;SDS011;65100;46.884;17.410;2024-02-21T08:22:19;31.57;;;10.67;;
76290;SDS011;65100;46.884;17.410;2024-02-21T08:24:44;20.83;;;10.30;;
76290;SDS011;65100;46.884;17.410;2024-02-21T08:27:09;21.70;;;11.13;;
76290;SDS011;65100;46.884;17.410;2024-02-21T08:29:35;24.07;;;10.37;;
76290;SDS011;65100;46.884;17.410;2024-02-21T08:32:00;21.92;;;9.20;;
76290;SDS011;65100;46.884;17.410;2024-02-21T08:34:26;21.00;;;8.50;;
76290;SDS011;65100;46.884;17.410;2024-02-21T08:36:51;26.33;;;9.30;;
76290;SDS011;65100;46.884;17.410;2024-02-21T08:39:17;27.83;;;10.00;;
76290;SDS011;65100;46.884;17.410;2024-02-21T08:41:42;28.00;;;10.43;;
76290;SDS011;65100;46.884;17.410;2024-02-21T08:44:07;26.65;;;10.15;;
76290;SDS011;65100;46.884;17.410;2024-02-21T08:46:33;25.13;;;10.07;;
76290;SDS011;65100;46.884;17.410;2024-02-21T08:48:58;20.37;;;9.67;;
76290;SDS011;65100;46.884;17.410;2024-02-21T08:51:24;22.30;;;10.07;;
76290;SDS011;65100;46.884;17.410;2024-02-21T08:53:50;22.17;;;10.77;;
76290;SDS011;65100;46.884;17.410;2024-02-21T08:56:16;18.88;;;9.63;;
76290;SDS011;65100;46.884;17.410;2024-02-21T08:58:42;22.83;;;11.25;;
76290;SDS011;65100;46.884;17.410;2024-02-21T09:01:08;19.43;;;9.80;;
76290;SDS011;65100;46.884;17.410;2024-02-21T09:03:37;16.77;;;7.80;;
76290;SDS011;65100;46.884;17.410;2024-02-21T09:06:10;18.25;;;7.30;;
76290;SDS011;65100;46.884;17.410;2024-02-21T09:08:39;21.90;;;10.13;;
76290;SDS011;65100;46.884;17.410;2024-02-21T09:11:06;21.80;;;10.30;;
76290;SDS011;65100;46.884;17.410;2024-02-21T09:13:31;14.25;;;6.97;;
76290;SDS011;65100;46.884;17.410;2024-02-21T09:15:57;16.70;;;6.57;;
76290;SDS011;65100;46.884;17.410;2024-02-21T09:18:22;15.50;;;5.67;;
76290;SDS011;65100;46.884;17.410;2024-02-21T09:20:48;13.98;;;4.90;;
76290;SDS011;65100;46.884;17.410;2024-02-21T09:23:13;10.77;;;3.87;;
76290;SDS011;65100;46.884;17.410;2024-02-21T09:25:39;9.40;;;3.40;;
76290;SDS011;65100;46.884;17.410;2024-02-21T09:28:05;8.75;;;3.05;;
76290;SDS011;65100;46.884;17.410;2024-02-21T09:30:31;8.60;;;2.90;;
76290;SDS011;65100;46.884;17.410;2024-02-21T09:32:57;8.30;;;3.30;;
76290;SDS011;65100;46.884;17.410;2024-02-21T09:35:25;8.90;;;3.70;;
76290;SDS011;65100;46.884;17.410;2024-02-21T09:37:52;10.32;;;4.25;;
76290;SDS011;65100;46.884;17.410;2024-02-21T09:40:18;8.82;;;3.40;;
76290;SDS011;65100;46.884;17.410;2024-02-21T09:42:44;9.90;;;3.53;;
76290;SDS011;65100;46.884;17.410;2024-02-21T09:45:22;8.68;;;3.45;;
76290;SDS011;65100;46.884;17.410;2024-02-21T09:50:26;8.83;;;3.80;;
76290;SDS011;65100;46.884;17.410;2024-02-21T09:52:52;9.40;;;4.05;;
76290;SDS011;65100;46.884;17.410;2024-02-21T09:55:20;11.70;;;4.50;;
76290;SDS011;65100;46.884;17.410;2024-02-21T09:57:46;9.48;;;4.57;;
76290;SDS011;65100;46.884;17.410;2024-02-21T10:00:12;9.30;;;4.07;;
76290;SDS011;65100;46.884;17.410;2024-02-21T10:02:46;13.23;;;6.25;;
76290;SDS011;65100;46.884;17.410;2024-02-21T10:05:15;14.90;;;7.40;;
76290;SDS011;65100;46.884;17.410;2024-02-21T10:07:41;19.17;;;8.90;;
76290;SDS011;65100;46.884;17.410;2024-02-21T10:10:07;17.33;;;8.70;;
76290;SDS011;65100;46.884;17.410;2024-02-21T10:12:33;17.25;;;8.70;;
76290;SDS011;65100;46.884;17.410;2024-02-21T10:15:02;14.67;;;6.97;;
76290;SDS011;65100;46.884;17.410;2024-02-21T10:17:28;15.23;;;6.63;;
76290;SDS011;65100;46.884;17.410;2024-02-21T10:19:53;19.60;;;8.97;;
76290;SDS011;65100;46.884;17.410;2024-02-21T10:22:19;12.68;;;5.97;;
76290;SDS011;65100;46.884;17.410;2024-02-21T10:24:46;10.50;;;3.80;;
76290;SDS011;65100;46.884;17.410;2024-02-21T10:27:11;8.93;;;4.30;;
76290;SDS011;65100;46.884;17.410;2024-02-21T10:29:37;10.63;;;5.05;;
76290;SDS011;65100;46.884;17.410;2024-02-21T10:32:04;11.80;;;4.53;;
76290;SDS011;65100;46.884;17.410;2024-02-21T10:34:35;12.52;;;4.70;;
76290;SDS011;65100;46.884;17.410;2024-02-21T10:37:09;9.65;;;4.38;;
76290;SDS011;65100;46.884;17.410;2024-02-21T10:39:38;8.77;;;4.07;;
76290;SDS011;65100;46.884;17.410;2024-02-21T10:42:05;8.50;;;3.42;;
76290;SDS011;65100;46.884;17.410;2024-02-21T10:44:37;10.63;;;3.83;;
76290;SDS011;65100;46.884;17.410;2024-02-21T10:47:05;8.82;;;3.92;;
76290;SDS011;65100;46.884;17.410;2024-02-21T10:49:33;8.83;;;3.17;;
76290;SDS011;65100;46.884;17.410;2024-02-21T10:52:13;7.28;;;2.75;;
76290;SDS011;65100;46.884;17.410;2024-02-21T10:54:55;11.38;;;3.38;;
76290;SDS011;65100;46.884;17.410;2024-02-21T10:57:23;7.72;;;3.20;;
76290;SDS011;65100;46.884;17.410;2024-02-21T10:59:49;9.18;;;3.45;;
76290;SDS011;65100;46.884;17.410;2024-02-21T11:02:16;8.73;;;3.10;;
76290;SDS011;65100;46.884;17.410;2024-02-21T11:04:41;7.47;;;3.00;;
76290;SDS011;65100;46.884;17.410;2024-02-21T11:07:08;7.88;;;2.78;;
76290;SDS011;65100;46.884;17.410;2024-02-21T11:09:33;6.80;;;3.07;;
76290;SDS011;65100;46.884;17.410;2024-02-21T11:12:03;9.15;;;3.25;;
76290;SDS011;65100;46.884;17.410;2024-02-21T11:14:30;8.85;;;3.42;;
76290;SDS011;65100;46.884;17.410;2024-02-21T11:17:14;7.70;;;3.40;;
76290;SDS011;65100;46.884;17.410;2024-02-21T11:19:40;8.95;;;2.90;;
76290;SDS011;65100;46.884;17.410;2024-02-21T11:22:06;8.60;;;3.20;;
76290;SDS011;65100;46.884;17.410;2024-02-21T11:24:39;7.22;;;2.90;;
76290;SDS011;65100;46.884;17.410;2024-02-21T11:27:14;10.97;;;3.70;;
76290;SDS011;65100;46.884;17.410;2024-02-21T11:29:47;9.40;;;3.55;;
76290;SDS011;65100;46.884;17.410;2024-02-21T11:32:16;8.43;;;3.38;;
76290;SDS011;65100;46.884;17.410;2024-02-21T11:34:58;9.10;;;3.42;;
76290;SDS011;65100;46.884;17.410;2024-02-21T11:37:30;10.00;;;3.70;;
76290;SDS011;65100;46.884;17.410;2024-02-21T11:39:59;7.23;;;3.10;;
76290;SDS011;65100;46.884;17.410;2024-02-21T11:42:26;7.82;;;3.45;;
76290;SDS011;65100;46.884;17.410;2024-02-21T11:44:52;11.40;;;3.38;;
76290;SDS011;65100;46.884;17.410;2024-02-21T11:47:18;6.70;;;2.90;;
76290;SDS011;65100;46.884;17.410;2024-02-21T11:49:47;8.23;;;3.20;;
76290;SDS011;65100;46.884;17.410;2024-02-21T11:52:15;7.22;;;3.42;;
76290;SDS011;65100;46.884;17.410;2024-02-21T11:54:47;7.53;;;2.95;;
76290;SDS011;65100;46.884;17.410;2024-02-21T11:57:17;8.52;;;3.38;;
76290;SDS011;65100;46.884;17.410;2024-02-21T11:59:46;8.70;;;3.60;;
76290;SDS011;65100;46.884;17.410;2024-02-21T12:02:13;8.77;;;3.13;;
76290;SDS011;65100;46.884;17.410;2024-02-21T12:04:39;7.47;;;3.70;;
76290;SDS011;65100;46.884;17.410;2024-02-21T12:07:05;9.17;;;3.63;;
76290;SDS011;65100;46.884;17.410;2024-02-21T12:09:31;9.20;;;3.92;;
76290;SDS011;65100;46.884;17.410;2024-02-21T12:11:57;9.48;;;3.50;;
76290;SDS011;65100;46.884;17.410;2024-02-21T12:14:28;7.68;;;3.17;;
76290;SDS011;65100;46.884;17.410;2024-02-21T12:16:56;8.37;;;3.20;;
76290;SDS011;65100;46.884;17.410;2024-02-21T12:19:21;8.45;;;3.33;;
76290;SDS011;65100;46.884;17.410;2024-02-21T12:21:47;9.27;;;3.73;;
76290;SDS011;65100;46.884;17.410;2024-02-21T12:24:21;8.32;;;3.50;;
76290;SDS011;65100;46.884;17.410;2024-02-21T12:26:48;8.52;;;4.45;;
76290;SDS011;65100;46.884;17.410;2024-02-21T12:29:14;9.88;;;4.60;;
76290;SDS011;65100;46.884;17.410;2024-02-21T12:31:43;8.47;;;3.73;;
76290;SDS011;65100;46.884;17.410;2024-02-21T12:34:09;11.18;;;3.50;;
76290;SDS011;65100;46.884;17.410;2024-02-21T12:36:35;10.67;;;3.30;;
76290;SDS011;65100;46.884;17.410;2024-02-21T12:39:05;10.38;;;3.70;;
76290;SDS011;65100;46.884;17.410;2024-02-21T12:41:31;10.43;;;3.20;;
76290;SDS011;65100;46.884;17.410;2024-02-21T12:43:58;7.30;;;3.20;;
76290;SDS011;65100;46.884;17.410;2024-02-21T12:46:23;8.47;;;3.10;;
76290;SDS011;65100;46.884;17.410;2024-02-21T12:48:49;11.98;;;4.18;;
76290;SDS011;65100;46.884;17.410;2024-02-21T12:51:15;9.27;;;3.33;;
76290;SDS011;65100;46.884;17.410;2024-02-21T12:53:45;12.87;;;4.53;;
76290;SDS011;65100;46.884;17.410;2024-02-21T12:56:12;12.30;;;3.88;;
76290;SDS011;65100;46.884;17.410;2024-02-21T12:58:37;9.47;;;3.57;;
76290;SDS011;65100;46.884;17.410;2024-02-21T13:01:03;8.98;;;3.80;;
76290;SDS011;65100;46.884;17.410;2024-02-21T13:03:29;9.57;;;4.50;;
76290;SDS011;65100;46.884;17.410;2024-02-21T13:05:55;9.48;;;3.90;;
76290;SDS011;65100;46.884;17.410;2024-02-21T13:08:21;9.10;;;4.00;;
76290;SDS011;65100;46.884;17.410;2024-02-21T13:10:48;8.73;;;3.80;;
76290;SDS011;65100;46.884;17.410;2024-02-21T13:13:14;9.93;;;3.60;;
76290;SDS011;65100;46.884;17.410;2024-02-21T13:15:39;9.23;;;3.50;;
76290;SDS011;65100;46.884;17.410;2024-02-21T13:18:08;9.20;;;3.53;;
76290;SDS011;65100;46.884;17.410;2024-02-21T13:20:34;8.25;;;3.45;;
76290;SDS011;65100;46.884;17.410;2024-02-21T13:22:59;9.47;;;4.10;;
76290;SDS011;65100;46.884;17.410;2024-02-21T13:25:25;10.60;;;4.07;;
76290;SDS011;65100;46.884;17.410;2024-02-21T13:27:50;10.23;;;3.55;;
76290;SDS011;65100;46.884;17.410;2024-02-21T13:30:16;10.70;;;3.10;;
76290;SDS011;65100;46.884;17.410;2024-02-21T13:32:42;9.82;;;3.60;;
76290;SDS011;65100;46.884;17.410;2024-02-21T13:35:08;7.03;;;3.03;;
76290;SDS011;65100;46.884;17.410;2024-02-21T13:37:36;6.50;;;2.90;;
76290;SDS011;65100;46.884;17.410;2024-02-21T13:40:02;7.35;;;3.00;;
76290;SDS011;65100;46.884;17.410;2024-02-21T13:42:29;7.53;;;2.90;;
76290;SDS011;65100;46.884;17.410;2024-02-21T13:44:55;9.50;;;3.50;;
76290;SDS011;65100;46.884;17.410;2024-02-21T13:47:20;8.67;;;3.00;;
76290;SDS011;65100;46.884;17.410;2024-02-21T13:49:46;7.97;;;2.92;;
76290;SDS011;65100;46.884;17.410;2024-02-21T13:52:12;9.68;;;3.10;;
76290;SDS011;65100;46.884;17.410;2024-02-21T13:54:38;7.50;;;3.63;;
76290;SDS011;65100;46.884;17.410;2024-02-21T13:57:04;9.40;;;3.85;;
76290;SDS011;65100;46.884;17.410;2024-02-21T13:59:29;10.50;;;4.50;;
76290;SDS011;65100;46.884;17.410;2024-02-21T14:01:55;10.23;;;4.30;;
76290;SDS011;65100;46.884;17.410;2024-02-21T14:04:20;9.00;;;3.40;;
76290;SDS011;65100;46.884;17.410;2024-02-21T14:06:46;9.48;;;3.50;;
76290;SDS011;65100;46.884;17.410;2024-02-21T14:09:12;9.83;;;3.73;;
76290;SDS011;65100;46.884;17.410;2024-02-21T14:11:38;7.60;;;3.35;;
76290;SDS011;65100;46.884;17.410;2024-02-21T14:14:05;8.27;;;3.30;;
76290;SDS011;65100;46.884;17.410;2024-02-21T14:16:30;7.75;;;3.50;;
76290;SDS011;65100;46.884;17.410;2024-02-21T14:18:56;8.57;;;3.80;;
76290;SDS011;65100;46.884;17.410;2024-02-21T14:21:22;7.83;;;3.50;;
76290;SDS011;65100;46.884;17.410;2024-02-21T14:23:47;8.93;;;3.20;;
76290;SDS011;65100;46.884;17.410;2024-02-21T14:26:13;8.03;;;3.47;;
76290;SDS011;65100;46.884;17.410;2024-02-21T14:28:39;7.35;;;3.20;;
76290;SDS011;65100;46.884;17.410;2024-02-21T14:31:05;9.10;;;3.58;;
76290;SDS011;65100;46.884;17.410;2024-02-21T14:33:34;7.50;;;3.87;;